createdAt,value
2023-04-02T00:01:42.910Z,5.53
2023-04-02T00:04:09.241Z,5.67
2023-04-02T00:06:35.516Z,5.65
2023-04-02T00:09:01.732Z,5.58
2023-04-02T00:11:27.963Z,5.64
2023-04-02T00:13:54.203Z,5.80
2023-04-02T00:16:20.465Z,5.91
2023-04-02T00:18:46.720Z,6.00
2023-04-02T00:21:12.944Z,6.13
2023-04-02T00:23:39.190Z,6.10
2023-04-02T00:26:05.449Z,6.14
2023-04-02T00:28:31.660Z,6.18
2023-04-02T00:30:57.880Z,6.20
2023-04-02T00:33:24.101Z,6.17
2023-04-02T00:35:50.402Z,6.22
2023-04-02T00:38:16.660Z,6.25
2023-04-02T00:40:42.942Z,6.30
2023-04-02T00:43:09.163Z,6.32
2023-04-02T00:45:35.773Z,6.28
2023-04-02T00:48:02.363Z,6.28
2023-04-02T00:50:28.607Z,6.24
2023-04-02T00:52:54.852Z,6.25
2023-04-02T00:55:21.112Z,6.21
2023-04-02T00:57:47.436Z,6.24
2023-04-02T01:00:13.739Z,6.25
2023-04-02T01:02:40.048Z,6.28
2023-04-02T01:05:06.350Z,6.28
2023-04-02T01:07:32.840Z,6.25
2023-04-02T01:09:59.081Z,6.25
2023-04-02T01:12:25.324Z,6.23
2023-04-02T01:14:51.595Z,6.23
2023-04-02T01:17:17.856Z,6.23
2023-04-02T01:19:44.094Z,6.26
2023-04-02T01:22:10.364Z,6.26
2023-04-02T01:24:36.620Z,6.25
2023-04-02T01:27:03.068Z,6.25
2023-04-02T01:29:29.317Z,6.28
2023-04-02T01:31:55.548Z,6.25
2023-04-02T01:34:22.233Z,6.17
2023-04-02T01:36:49.191Z,6.13
2023-04-02T01:39:15.442Z,5.74
2023-04-02T01:41:41.664Z,5.77
2023-04-02T01:44:07.902Z,5.48
2023-04-02T01:46:34.176Z,5.27
2023-04-02T01:49:00.462Z,4.80
2023-04-02T01:51:26.755Z,5.11
2023-04-02T01:53:52.984Z,5.27
2023-04-02T01:56:19.262Z,5.13
2023-04-02T01:58:45.481Z,5.24
2023-04-02T02:01:11.777Z,5.39
2023-04-02T02:03:38.078Z,5.48
2023-04-02T02:06:04.377Z,5.52
2023-04-02T02:08:30.636Z,5.56
2023-04-02T02:10:56.892Z,5.60
2023-04-02T02:13:23.119Z,5.57
2023-04-02T02:15:49.394Z,5.56
2023-04-02T02:18:15.632Z,5.00
2023-04-02T02:20:41.888Z,4.83
2023-04-02T02:23:08.114Z,4.97
2023-04-02T02:25:34.533Z,5.09
2023-04-02T02:28:00.918Z,5.27
2023-04-02T02:30:27.146Z,5.41
2023-04-02T02:32:53.381Z,5.41
2023-04-02T02:35:19.668Z,5.35
2023-04-02T02:37:45.886Z,5.22
2023-04-02T02:40:12.110Z,5.33
2023-04-02T02:42:38.362Z,5.41
2023-04-02T02:45:04.601Z,5.55
2023-04-02T02:47:30.834Z,5.68
2023-04-02T02:49:58.921Z,5.80
2023-04-02T02:52:25.361Z,5.91
2023-04-02T02:54:51.611Z,6.01
2023-04-02T02:57:17.932Z,6.03
2023-04-02T02:59:44.226Z,6.06
2023-04-02T03:02:10.509Z,6.12
2023-04-02T03:04:36.754Z,6.15
2023-04-02T03:07:03.005Z,6.17
2023-04-02T03:09:29.245Z,6.14
2023-04-02T03:11:55.492Z,6.17
2023-04-02T03:14:21.732Z,6.21
2023-04-02T03:16:47.976Z,6.25
2023-04-02T03:19:14.183Z,6.25
2023-04-02T03:21:40.430Z,6.25
2023-04-02T03:24:06.649Z,6.21
2023-04-02T03:26:32.894Z,6.22
2023-04-02T03:28:59.141Z,6.15
2023-04-02T03:31:25.405Z,5.97
2023-04-02T03:33:51.683Z,5.80
2023-04-02T03:36:17.944Z,5.81
2023-04-02T03:38:44.207Z,5.81
2023-04-02T03:41:10.442Z,5.73
2023-04-02T03:43:36.710Z,5.60
2023-04-02T03:46:02.977Z,5.58
2023-04-02T03:48:29.218Z,5.49
2023-04-02T03:50:55.460Z,5.47
2023-04-02T03:53:21.680Z,5.48
2023-04-02T03:55:47.956Z,5.55
2023-04-02T03:58:14.179Z,5.53
2023-04-02T04:00:40.433Z,5.52
2023-04-02T04:03:06.718Z,5.41
2023-04-02T04:05:33.243Z,5.07
2023-04-02T04:07:59.619Z,5.08
2023-04-02T04:10:25.860Z,5.23
2023-04-02T04:12:52.184Z,5.37
2023-04-02T04:15:18.433Z,5.50
2023-04-02T04:17:44.660Z,5.58
2023-04-02T04:20:10.959Z,5.51
2023-04-02T04:22:37.188Z,5.61
2023-04-02T04:25:03.423Z,5.75
2023-04-02T04:27:29.656Z,5.86
2023-04-02T04:29:55.916Z,5.92
2023-04-02T04:32:22.138Z,5.98
2023-04-02T04:34:48.372Z,5.91
2023-04-02T04:37:14.593Z,5.92
2023-04-02T04:39:40.838Z,5.90
2023-04-02T04:42:07.061Z,5.92
2023-04-02T04:44:33.296Z,5.93
2023-04-02T04:46:59.520Z,5.78
2023-04-02T04:49:25.756Z,5.72
2023-04-02T04:51:52.030Z,5.69
2023-04-02T04:54:18.288Z,5.49
2023-04-02T04:56:44.517Z,5.33
2023-04-02T04:59:10.767Z,5.26
2023-04-02T05:01:37.009Z,5.21
2023-04-02T05:04:03.299Z,5.13
2023-04-02T05:06:29.578Z,5.06
2023-04-02T05:08:55.840Z,4.98
2023-04-02T05:11:22.089Z,4.95
2023-04-02T05:13:48.332Z,4.91
2023-04-02T05:16:14.648Z,4.82
2023-04-02T05:18:40.891Z,4.73
2023-04-02T05:21:07.129Z,4.55
2023-04-02T05:23:33.357Z,4.43
2023-04-02T05:25:59.600Z,4.38
2023-04-02T05:28:25.815Z,4.31
2023-04-02T05:30:52.058Z,4.23
2023-04-02T05:33:18.322Z,4.19
2023-04-02T05:35:44.624Z,4.08
2023-04-02T05:38:10.904Z,4.05
2023-04-02T05:40:37.157Z,4.11
2023-04-02T05:43:03.447Z,4.09
2023-04-02T05:45:29.690Z,4.10
2023-04-02T05:47:58.038Z,4.07
2023-04-02T05:50:24.314Z,4.10
2023-04-02T05:52:50.548Z,4.04
2023-04-02T05:55:16.809Z,3.95
2023-04-02T05:57:49.520Z,3.89
2023-04-02T06:00:23.049Z,3.86
2023-04-02T06:02:49.308Z,3.83
2023-04-02T06:05:15.608Z,3.92
2023-04-02T06:07:41.894Z,4.02
2023-04-02T06:10:08.125Z,4.00
2023-04-02T06:12:34.368Z,4.08
2023-04-02T06:15:00.623Z,4.06
2023-04-02T06:17:26.881Z,4.02
2023-04-02T06:19:53.158Z,4.03
2023-04-02T06:22:19.385Z,4.06
2023-04-02T06:24:45.690Z,3.97
2023-04-02T06:27:11.966Z,4.06
2023-04-02T06:29:38.282Z,3.88
2023-04-02T06:32:04.625Z,3.67
2023-04-02T06:34:30.871Z,3.60
2023-04-02T06:36:57.144Z,3.57
2023-04-02T06:39:23.481Z,3.61
2023-04-02T06:41:49.729Z,3.69
2023-04-02T06:44:15.975Z,3.69
2023-04-02T06:46:42.262Z,3.70
2023-04-02T06:49:08.497Z,3.78
2023-04-02T06:51:34.726Z,3.83
2023-04-02T06:54:01.018Z,3.84
2023-04-02T06:56:27.239Z,3.83
2023-04-02T06:58:53.462Z,3.87
2023-04-02T07:01:19.844Z,3.97
2023-04-02T07:03:46.145Z,4.15
2023-04-02T07:06:12.399Z,4.34
2023-04-02T07:08:38.622Z,4.35
2023-04-02T07:11:04.893Z,4.55
2023-04-02T07:13:31.124Z,4.71
2023-04-02T07:15:57.367Z,4.70
2023-04-02T07:18:24.096Z,4.86
2023-04-02T07:20:52.165Z,4.94
2023-04-02T07:23:18.528Z,5.02
2023-04-02T07:25:44.838Z,5.06
2023-04-02T07:28:11.109Z,5.22
2023-04-02T07:30:37.355Z,5.37
2023-04-02T07:33:03.643Z,5.52
2023-04-02T07:35:29.927Z,5.58
2023-04-02T07:37:56.221Z,5.74
2023-04-02T07:40:22.455Z,6.01
2023-04-02T07:42:48.760Z,6.17
2023-04-02T07:45:15.037Z,6.28
2023-04-02T07:47:41.345Z,6.34
2023-04-02T07:50:07.628Z,6.36
2023-04-02T07:52:33.881Z,6.39
2023-04-02T07:55:00.339Z,6.38
2023-04-02T07:57:26.630Z,6.25
2023-04-02T07:59:52.902Z,6.33
2023-04-02T08:02:19.186Z,6.37
2023-04-02T08:04:45.485Z,6.56
2023-04-02T08:07:11.704Z,6.67
2023-04-02T08:09:37.965Z,6.70
2023-04-02T08:12:04.217Z,6.88
2023-04-02T08:14:30.469Z,6.99
2023-04-02T08:16:56.825Z,7.17
2023-04-02T08:19:23.135Z,7.15
2023-04-02T08:21:49.368Z,7.10
2023-04-02T08:24:15.650Z,7.06
2023-04-02T08:26:43.380Z,7.27
2023-04-02T08:29:10.771Z,7.24
2023-04-02T08:31:37.002Z,7.36
2023-04-02T08:34:03.253Z,7.35
2023-04-02T08:36:29.528Z,6.81
2023-04-02T08:38:55.791Z,6.95
2023-04-02T08:41:22.010Z,6.69
2023-04-02T08:43:48.234Z,6.95
2023-04-02T08:46:14.492Z,6.88
2023-04-02T08:48:42.701Z,7.19
2023-04-02T08:51:09.040Z,7.40
2023-04-02T08:53:35.254Z,7.65
2023-04-02T08:56:01.504Z,7.64
2023-04-02T08:58:27.741Z,7.89
2023-04-02T09:00:54.025Z,8.14
2023-04-02T09:03:20.285Z,8.29
2023-04-02T09:05:46.548Z,8.39
2023-04-02T09:08:12.832Z,8.36
2023-04-02T09:10:39.131Z,8.33
2023-04-02T09:13:05.372Z,8.07
2023-04-02T09:15:31.613Z,8.22
2023-04-02T09:17:59.556Z,7.98
2023-04-02T09:20:25.976Z,7.87
2023-04-02T09:22:52.225Z,7.78
2023-04-02T09:25:18.461Z,8.30
2023-04-02T09:27:44.709Z,8.79
2023-04-02T09:30:10.943Z,9.18
2023-04-02T09:32:37.273Z,9.49
2023-04-02T09:35:09.588Z,9.87
2023-04-02T09:37:41.481Z,9.71
2023-04-02T09:40:07.715Z,9.85
2023-04-02T09:42:33.965Z,9.93
2023-04-02T09:45:00.225Z,10.23
2023-04-02T09:47:26.520Z,10.63
2023-04-02T09:49:52.826Z,10.23
2023-04-02T09:52:19.098Z,9.96
2023-04-02T09:54:45.368Z,10.12
2023-04-02T09:57:11.623Z,10.06
2023-04-02T09:59:37.879Z,10.19
2023-04-02T10:02:04.122Z,10.09
2023-04-02T10:04:30.368Z,10.25
2023-04-02T10:06:56.660Z,9.90
2023-04-02T10:09:22.902Z,9.80
2023-04-02T10:11:49.177Z,9.76
2023-04-02T10:14:15.411Z,9.27
2023-04-02T10:16:41.706Z,9.23
2023-04-02T10:19:08.021Z,9.49
2023-04-02T10:21:34.296Z,9.61
2023-04-02T10:24:00.530Z,9.61
2023-04-02T10:26:26.752Z,9.92
2023-04-02T10:28:53.044Z,10.08
2023-04-02T10:31:19.509Z,10.17
2023-04-02T10:33:45.758Z,10.39
2023-04-02T10:36:12.059Z,10.62
2023-04-02T10:38:38.339Z,10.62
2023-04-02T10:41:04.577Z,10.74
2023-04-02T10:43:30.824Z,10.89
2023-04-02T10:45:57.113Z,10.72
2023-04-02T10:48:23.375Z,10.90
2023-04-02T10:50:49.676Z,11.25
2023-04-02T10:53:15.933Z,11.62
2023-04-02T10:55:42.171Z,11.68
2023-04-02T10:58:08.415Z,12.01
2023-04-02T11:00:34.656Z,11.82
2023-04-02T11:03:00.997Z,11.97
2023-04-02T11:05:27.308Z,12.42
2023-04-02T11:07:53.735Z,12.56
2023-04-02T11:10:19.980Z,12.71
2023-04-02T11:12:46.292Z,12.64
2023-04-02T11:15:12.528Z,12.83
2023-04-02T11:17:38.794Z,12.41
2023-04-02T11:20:05.160Z,12.90
2023-04-02T11:22:33.023Z,12.58
2023-04-02T11:24:59.244Z,11.73
2023-04-02T11:27:25.505Z,12.00
2023-04-02T11:29:51.762Z,12.00
2023-04-02T11:32:18.004Z,12.03
2023-04-02T11:34:44.248Z,12.41
2023-04-02T11:37:10.472Z,12.54
2023-04-02T11:39:36.723Z,12.28
2023-04-02T11:42:05.685Z,12.45
2023-04-02T11:44:31.899Z,12.48
2023-04-02T11:46:58.216Z,12.94
2023-04-02T11:49:24.456Z,12.14
2023-04-02T11:51:56.378Z,12.26
2023-04-02T11:54:28.514Z,12.35
2023-04-02T11:56:54.789Z,12.29
2023-04-02T11:59:21.071Z,12.15
2023-04-02T12:01:47.323Z,12.03
2023-04-02T12:04:13.594Z,12.05
2023-04-02T12:06:39.923Z,12.23
2023-04-02T12:09:06.230Z,12.27
2023-04-02T12:11:32.467Z,12.08
2023-04-02T12:13:58.762Z,11.57
2023-04-02T12:16:25.067Z,11.53
2023-04-02T12:18:51.414Z,11.86
2023-04-02T12:21:17.660Z,11.46
2023-04-02T12:23:43.892Z,11.58
2023-04-02T12:26:10.132Z,11.76
2023-04-02T12:28:36.352Z,11.79
2023-04-02T12:31:02.660Z,10.84
2023-04-02T12:33:28.934Z,10.62
2023-04-02T12:35:55.214Z,10.48
2023-04-02T12:38:21.461Z,10.38
2023-04-02T12:40:47.696Z,11.10
2023-04-02T12:43:13.965Z,11.34
2023-04-02T12:45:40.225Z,11.87
2023-04-02T12:48:06.480Z,12.34
2023-04-02T12:50:32.756Z,12.61
2023-04-02T12:52:59.080Z,12.97
2023-04-02T12:55:25.349Z,13.31
2023-04-02T12:57:51.644Z,13.53
2023-04-02T13:00:17.915Z,13.24
2023-04-02T13:02:44.147Z,12.96
2023-04-02T13:05:10.510Z,12.85
2023-04-02T13:07:36.737Z,13.33
2023-04-02T13:10:03.103Z,13.73
2023-04-02T13:12:29.331Z,13.97
2023-04-02T13:14:55.565Z,14.15
2023-04-02T13:17:21.876Z,14.38
2023-04-02T13:19:48.171Z,14.59
2023-04-02T13:22:14.395Z,14.66
2023-04-02T13:24:40.645Z,14.88
2023-04-02T13:27:06.910Z,14.88
2023-04-02T13:29:33.162Z,14.93
2023-04-02T13:31:59.432Z,14.48
2023-04-02T13:34:25.668Z,14.76
2023-04-02T13:36:51.916Z,14.51
2023-04-02T13:39:18.166Z,14.70
2023-04-02T13:41:44.447Z,14.46
2023-04-02T13:44:10.717Z,13.98
2023-04-02T13:46:36.964Z,13.99
2023-04-02T13:49:03.264Z,14.11
2023-04-02T13:51:29.759Z,13.67
2023-04-02T13:53:56.083Z,13.21
2023-04-02T13:56:22.327Z,13.40
2023-04-02T13:58:48.557Z,13.50
2023-04-02T14:01:14.854Z,13.57
2023-04-02T14:03:41.278Z,13.22
2023-04-02T14:06:07.523Z,13.40
2023-04-02T14:08:33.756Z,12.97
2023-04-02T14:10:59.981Z,13.17
2023-04-02T14:13:26.213Z,12.83
2023-04-02T14:15:52.493Z,13.21
2023-04-02T14:18:18.731Z,13.64
2023-04-02T14:20:44.975Z,13.70
2023-04-02T14:23:11.188Z,13.86
2023-04-02T14:25:37.614Z,13.62
2023-04-02T14:28:04.055Z,13.80
2023-04-02T14:30:32.791Z,13.90
2023-04-02T14:32:59.114Z,14.03
2023-04-02T14:35:25.530Z,13.99
2023-04-02T14:37:51.865Z,13.54
2023-04-02T14:40:18.113Z,12.36
2023-04-02T14:42:44.418Z,11.46
2023-04-02T14:45:10.681Z,11.51
2023-04-02T14:47:38.138Z,11.45
2023-04-02T14:50:04.449Z,11.60
2023-04-02T14:52:30.684Z,11.79
2023-04-02T14:54:56.946Z,11.51
2023-04-02T14:57:23.212Z,11.44
2023-04-02T14:59:49.452Z,11.38
2023-04-02T15:02:15.682Z,11.52
2023-04-02T15:04:41.938Z,11.59
2023-04-02T15:07:08.168Z,11.85
2023-04-02T15:09:34.476Z,11.71
2023-04-02T15:12:00.720Z,11.95
2023-04-02T15:14:26.956Z,11.90
2023-04-02T15:16:53.245Z,11.95
2023-04-02T15:19:19.484Z,11.84
2023-04-02T15:21:55.791Z,11.24
2023-04-02T15:24:23.295Z,10.46
2023-04-02T15:26:49.539Z,10.77
2023-04-02T15:29:27.732Z,10.51
2023-04-02T15:31:54.561Z,10.32
2023-04-02T15:34:20.974Z,10.50
2023-04-02T15:36:47.224Z,10.61
2023-04-02T15:39:13.469Z,10.70
2023-04-02T15:41:39.700Z,10.81
2023-04-02T15:44:05.916Z,10.74
2023-04-02T15:46:32.167Z,10.53
2023-04-02T15:48:58.435Z,10.46
2023-04-02T15:51:24.720Z,10.50
2023-04-02T15:53:50.946Z,10.40
2023-04-02T15:56:17.171Z,10.21
2023-04-02T15:58:43.444Z,9.92
2023-04-02T16:01:09.770Z,10.36
2023-04-02T16:03:36.196Z,10.48
2023-04-02T16:06:02.590Z,9.95
2023-04-02T16:08:28.833Z,10.08
2023-04-02T16:10:56.626Z,10.33
2023-04-02T16:13:22.862Z,10.29
2023-04-02T16:15:49.077Z,10.33
2023-04-02T16:18:15.430Z,10.36
2023-04-02T16:20:41.689Z,10.67
2023-04-02T16:23:07.940Z,10.84
2023-04-02T16:25:34.190Z,10.69
2023-04-02T16:28:00.434Z,10.94
2023-04-02T16:30:26.684Z,10.82
2023-04-02T16:32:53.057Z,9.27
2023-04-02T16:35:41.085Z,8.71
2023-04-02T16:38:05.555Z,8.16
2023-04-02T16:40:31.780Z,7.70
2023-04-02T16:42:58.019Z,7.67
2023-04-02T16:45:24.588Z,7.14
2023-04-02T16:47:50.879Z,7.07
2023-04-02T16:50:17.214Z,7.09
2023-04-02T16:52:43.438Z,6.97
2023-04-02T16:55:11.165Z,6.87
2023-04-02T16:57:37.834Z,6.53
2023-04-02T17:00:04.062Z,6.61
2023-04-02T17:02:30.475Z,6.84
2023-04-02T17:04:56.831Z,7.21
2023-04-02T17:07:23.068Z,7.51
2023-04-02T17:09:49.297Z,7.76
2023-04-02T17:12:15.544Z,7.93
2023-04-02T17:14:41.799Z,8.14
2023-04-02T17:17:08.036Z,8.33
2023-04-02T17:19:34.303Z,8.49
2023-04-02T17:22:00.567Z,8.62
2023-04-02T17:24:26.858Z,8.68
2023-04-02T17:26:53.149Z,8.71
2023-04-02T17:29:19.427Z,8.76
2023-04-02T17:31:45.765Z,8.82
2023-04-02T17:34:12.154Z,8.69
2023-04-02T17:36:38.394Z,8.63
2023-04-02T17:39:04.622Z,8.63
2023-04-02T17:41:30.903Z,8.65
2023-04-02T17:43:57.140Z,8.64
2023-04-02T17:46:23.410Z,8.57
2023-04-02T17:48:49.691Z,8.56
2023-04-02T17:51:15.926Z,8.54
2023-04-02T17:53:42.171Z,8.54
2023-04-02T17:56:08.409Z,8.60
2023-04-02T17:58:34.619Z,8.49
2023-04-02T18:01:00.872Z,8.13
2023-04-02T18:03:28.751Z,7.76
2023-04-02T18:05:56.330Z,7.47
2023-04-02T18:08:22.624Z,7.45
2023-04-02T18:10:48.947Z,7.39
2023-04-02T18:13:15.184Z,7.45
2023-04-02T18:15:41.412Z,7.48
2023-04-02T18:18:07.661Z,7.42
2023-04-02T18:20:34.083Z,7.38
2023-04-02T18:23:00.414Z,7.36
2023-04-02T18:25:26.663Z,7.34
2023-04-02T18:27:52.917Z,7.33
2023-04-02T18:30:19.223Z,7.31
2023-04-02T18:32:45.556Z,7.25
2023-04-02T18:35:11.825Z,7.19
2023-04-02T18:37:38.094Z,7.10
2023-04-02T18:40:04.342Z,7.10
2023-04-02T18:42:30.577Z,7.07
2023-04-02T18:44:56.825Z,7.04
2023-04-02T18:47:23.089Z,7.00
2023-04-02T18:49:49.352Z,6.94
2023-04-02T18:52:15.783Z,6.93
2023-04-02T18:54:42.119Z,6.95
2023-04-02T18:57:08.421Z,6.97
2023-04-02T18:59:34.729Z,7.02
2023-04-02T19:02:00.960Z,7.04
2023-04-02T19:04:27.235Z,7.01
2023-04-02T19:06:53.444Z,6.97
2023-04-02T19:09:19.734Z,6.91
2023-04-02T19:11:45.978Z,6.68
2023-04-02T19:14:12.212Z,6.71
2023-04-02T19:16:38.496Z,6.82
2023-04-02T19:19:04.752Z,6.89
2023-04-02T19:21:30.995Z,6.89
2023-04-02T19:23:57.227Z,6.85
2023-04-02T19:26:23.486Z,6.75
2023-04-02T19:28:49.711Z,6.54
2023-04-02T19:31:15.983Z,6.48
2023-04-02T19:33:42.216Z,6.42
2023-04-02T19:36:08.490Z,6.46
2023-04-02T19:38:34.751Z,6.46
2023-04-02T19:41:00.988Z,6.44
2023-04-02T19:43:27.217Z,6.34
2023-04-02T19:45:53.436Z,6.27
2023-04-02T19:48:19.648Z,5.95
2023-04-02T19:50:45.848Z,5.96
2023-04-02T19:53:12.097Z,5.98
2023-04-02T19:55:38.559Z,6.02
2023-04-02T19:58:18.791Z,6.05
2023-04-02T20:00:46.021Z,6.10
2023-04-02T20:03:12.291Z,6.13
2023-04-02T20:05:38.819Z,6.15
2023-04-02T20:08:05.268Z,6.17
2023-04-02T20:10:31.516Z,6.22
2023-04-02T20:12:57.737Z,6.21
2023-04-02T20:15:24.024Z,6.23
2023-04-02T20:17:50.287Z,6.23
2023-04-02T20:20:16.529Z,6.20
2023-04-02T20:22:42.779Z,6.12
2023-04-02T20:25:09.004Z,6.14
2023-04-02T20:27:35.260Z,6.17
2023-04-02T20:30:01.490Z,6.15
2023-04-02T20:32:27.820Z,6.16
2023-04-02T20:34:54.068Z,6.18
2023-04-02T20:37:20.303Z,6.20
2023-04-02T20:39:46.539Z,6.19
2023-04-02T20:42:12.795Z,6.15
2023-04-02T20:44:39.042Z,6.14
2023-04-02T20:47:05.264Z,6.12
2023-04-02T20:49:31.483Z,6.12
2023-04-02T20:51:57.720Z,6.08
2023-04-02T20:54:23.937Z,6.09
2023-04-02T20:56:50.268Z,6.05
2023-04-02T20:59:16.638Z,6.08
2023-04-02T21:01:42.881Z,6.04
2023-04-02T21:04:09.136Z,6.04
2023-04-02T21:06:35.377Z,6.03
2023-04-02T21:09:01.615Z,6.05
2023-04-02T21:11:27.845Z,6.02
2023-04-02T21:13:54.068Z,5.98
2023-04-02T21:16:20.361Z,5.93
2023-04-02T21:18:46.655Z,5.95
2023-04-02T21:21:12.914Z,6.03
2023-04-02T21:23:39.141Z,6.05
2023-04-02T21:26:05.361Z,6.03
2023-04-02T21:28:31.596Z,6.05
2023-04-02T21:30:57.813Z,6.00
2023-04-02T21:33:24.073Z,5.93
2023-04-02T21:35:50.318Z,5.39
2023-04-02T21:38:16.564Z,5.34
2023-04-02T21:40:42.793Z,5.42
2023-04-02T21:43:09.015Z,5.47
2023-04-02T21:45:35.484Z,5.49
2023-04-02T21:48:01.882Z,5.52
2023-04-02T21:50:28.159Z,5.52
2023-04-02T21:52:54.397Z,5.46
2023-04-02T21:55:20.667Z,5.37
2023-04-02T21:57:46.956Z,5.29
2023-04-02T22:00:13.216Z,5.29
2023-04-02T22:02:39.554Z,5.31
2023-04-02T22:05:05.838Z,5.29
2023-04-02T22:07:32.061Z,5.27
2023-04-02T22:09:58.311Z,5.17
2023-04-02T22:12:24.552Z,5.06
2023-04-02T22:14:50.791Z,5.03
2023-04-02T22:17:17.023Z,5.02
2023-04-02T22:19:43.247Z,5.03
2023-04-02T22:22:09.493Z,5.04
2023-04-02T22:24:35.782Z,5.03
2023-04-02T22:27:02.039Z,4.93
2023-04-02T22:29:28.276Z,4.86
2023-04-02T22:31:54.504Z,4.90
2023-04-02T22:34:20.743Z,4.87
2023-04-02T22:36:46.954Z,4.92
2023-04-02T22:39:13.195Z,5.03
2023-04-02T22:41:39.441Z,5.12
2023-04-02T22:44:05.704Z,5.19
2023-04-02T22:46:32.030Z,5.32
2023-04-02T22:48:58.300Z,5.35
2023-04-02T22:51:24.577Z,5.42
2023-04-02T22:53:50.799Z,5.34
2023-04-02T22:56:17.035Z,5.39
2023-04-02T22:58:43.279Z,5.44
2023-04-02T23:01:09.576Z,5.51
2023-04-02T23:03:35.853Z,5.55
2023-04-02T23:06:02.118Z,5.58
2023-04-02T23:08:28.422Z,5.63
2023-04-02T23:10:54.651Z,5.69
2023-04-02T23:13:20.895Z,5.69
2023-04-02T23:15:47.148Z,5.61
2023-04-02T23:18:13.374Z,5.57
2023-04-02T23:20:39.605Z,5.61
2023-04-02T23:23:05.831Z,5.58
2023-04-02T23:25:32.099Z,5.54
2023-04-02T23:27:58.334Z,5.52
2023-04-02T23:30:24.548Z,5.45
2023-04-02T23:32:50.840Z,5.42
2023-04-02T23:35:17.080Z,5.27
2023-04-02T23:37:43.313Z,5.32
2023-04-02T23:40:09.570Z,5.41
2023-04-02T23:42:35.822Z,5.48
2023-04-02T23:45:02.078Z,5.55
2023-04-02T23:47:28.341Z,5.57
2023-04-02T23:49:54.589Z,5.63
2023-04-02T23:52:20.814Z,5.71
2023-04-02T23:54:47.064Z,5.73
2023-04-02T23:57:13.363Z,5.70
2023-04-02T23:59:39.713Z,5.82
